createdAt,value
2018-04-18T00:00:40.197Z,5.70
2018-04-18T00:03:14.565Z,4.97
2018-04-18T00:05:49.153Z,6.50
2018-04-18T00:08:24.348Z,6.37
2018-04-18T00:10:58.904Z,5.37
2018-04-18T00:13:34.140Z,5.20
2018-04-18T00:16:08.660Z,7.20
2018-04-18T00:18:43.040Z,6.60
2018-04-18T00:21:17.491Z,6.83
2018-04-18T00:23:51.840Z,4.70
2018-04-18T00:26:26.421Z,6.73
2018-04-18T00:29:01.467Z,7.00
2018-04-18T00:31:36.828Z,5.10
2018-04-18T00:34:11.465Z,6.27
2018-04-18T00:36:45.874Z,5.23
2018-04-18T00:39:20.173Z,6.77
2018-04-18T00:41:54.724Z,6.07
2018-04-18T00:44:30.655Z,5.60
2018-04-18T00:47:05.293Z,7.30
2018-04-18T00:49:39.732Z,7.67
2018-04-18T00:52:14.244Z,9.00
2018-04-18T00:54:48.660Z,9.40
2018-04-18T00:57:23.274Z,5.60
2018-04-18T00:59:57.613Z,7.23
2018-04-18T01:02:32.137Z,6.17
2018-04-18T01:05:06.867Z,6.17
2018-04-18T01:07:41.225Z,5.87
2018-04-18T01:10:15.616Z,6.47
2018-04-18T01:12:50.016Z,6.33
2018-04-18T01:15:24.525Z,7.67
2018-04-18T01:17:58.868Z,9.33
2018-04-18T01:20:33.272Z,5.83
2018-04-18T01:23:07.816Z,5.90
2018-04-18T01:25:42.128Z,7.37
2018-04-18T01:28:16.644Z,6.47
2018-04-18T01:30:51.060Z,5.37
2018-04-18T01:33:25.396Z,5.87
2018-04-18T01:35:59.715Z,6.80
2018-04-18T01:38:34.991Z,6.30
2018-04-18T01:41:09.461Z,6.97
2018-04-18T01:43:44.093Z,6.10
2018-04-18T01:46:18.610Z,5.70
2018-04-18T01:49:05.042Z,7.83
2018-04-18T01:51:39.440Z,5.83
2018-04-18T01:54:14.649Z,6.17
2018-04-18T01:56:49.192Z,7.33
2018-04-18T01:59:23.592Z,5.70
2018-04-18T02:01:58.376Z,8.87
2018-04-18T02:04:32.739Z,6.70
2018-04-18T02:07:06.983Z,7.53
2018-04-18T02:09:41.393Z,6.13
2018-04-18T02:12:15.693Z,6.47
2018-04-18T02:14:50.025Z,6.83
2018-04-18T02:17:24.448Z,9.00
2018-04-18T02:19:58.783Z,8.97
2018-04-18T02:22:33.301Z,6.80
2018-04-18T02:25:07.574Z,6.17
2018-04-18T02:27:42.216Z,7.07
2018-04-18T02:30:16.508Z,10.33
2018-04-18T02:32:50.980Z,5.50
2018-04-18T02:35:26.003Z,6.60
2018-04-18T02:38:00.444Z,5.00
2018-04-18T02:40:34.820Z,9.23
2018-04-18T02:43:09.294Z,6.00
2018-04-18T02:45:43.608Z,6.43
2018-04-18T02:48:18.237Z,6.07
2018-04-18T02:50:52.727Z,8.43
2018-04-18T02:53:27.988Z,6.77
2018-04-18T02:56:02.372Z,8.67
2018-04-18T02:58:36.700Z,5.30
2018-04-18T03:01:11.356Z,7.10
2018-04-18T03:03:45.875Z,7.63
2018-04-18T03:06:20.485Z,6.27
2018-04-18T03:08:54.755Z,6.50
2018-04-18T03:11:29.314Z,6.10
2018-04-18T03:14:03.871Z,6.43
2018-04-18T03:16:38.152Z,6.63
2018-04-18T03:19:12.409Z,6.63
2018-04-18T03:21:47.021Z,9.07
2018-04-18T03:24:21.624Z,6.03
2018-04-18T03:26:56.172Z,5.90
2018-04-18T03:29:31.398Z,7.50
2018-04-18T03:32:05.840Z,6.97
2018-04-18T03:34:40.272Z,8.03
2018-04-18T03:37:14.861Z,9.40
2018-04-18T03:39:49.168Z,5.80
2018-04-18T03:42:23.416Z,6.77
2018-04-18T03:44:57.740Z,5.97
2018-04-18T03:47:32.001Z,6.93
2018-04-18T03:50:09.950Z,5.77
2018-04-18T03:52:45.203Z,4.60
2018-04-18T03:55:19.620Z,8.83
2018-04-18T03:57:54.044Z,5.10
2018-04-18T04:00:28.800Z,10.23
2018-04-18T04:03:03.069Z,5.70
2018-04-18T04:05:37.582Z,6.37
2018-04-18T04:08:11.965Z,7.00
2018-04-18T04:10:46.553Z,11.27
2018-04-18T04:13:22.085Z,10.90
2018-04-18T04:15:57.208Z,6.17
2018-04-18T04:18:43.559Z,7.00
2018-04-18T04:21:29.836Z,5.83
2018-04-18T04:24:16.240Z,6.07
2018-04-18T04:26:50.536Z,5.40
2018-04-18T04:29:25.572Z,5.97
2018-04-18T04:32:00.028Z,13.57
2018-04-18T04:34:34.331Z,6.10
2018-04-18T04:37:08.580Z,5.63
2018-04-18T04:39:42.950Z,8.87
2018-04-18T04:42:18.196Z,7.33
2018-04-18T04:44:53.324Z,6.70
2018-04-18T04:47:27.541Z,5.57
2018-04-18T04:50:01.942Z,10.83
2018-04-18T04:52:36.379Z,6.07
2018-04-18T04:55:10.620Z,5.87
2018-04-18T04:57:44.917Z,6.20
2018-04-18T05:00:20.040Z,5.87
2018-04-18T05:02:54.577Z,6.20
2018-04-18T05:05:29.029Z,6.73
2018-04-18T05:08:03.452Z,5.37
2018-04-18T05:10:37.716Z,8.87
2018-04-18T05:13:12.283Z,7.97
2018-04-18T05:15:46.772Z,8.83
2018-04-18T05:18:21.116Z,7.77
2018-04-18T05:20:55.648Z,10.33
2018-04-18T05:23:30.046Z,5.93
2018-04-18T05:26:05.188Z,6.50
2018-04-18T05:28:39.524Z,7.90
2018-04-18T05:31:14.552Z,12.33
2018-04-18T05:33:49.224Z,12.50
2018-04-18T05:36:23.724Z,20.33
2018-04-18T05:38:58.220Z,12.33
2018-04-18T05:41:33.224Z,10.50
2018-04-18T05:44:08.382Z,11.33
2018-04-18T05:46:43.024Z,9.53
2018-04-18T05:49:17.296Z,18.37
2018-04-18T05:51:51.747Z,7.10
2018-04-18T05:54:26.168Z,11.27
2018-04-18T05:57:00.517Z,13.20
2018-04-18T05:59:34.824Z,11.13
2018-04-18T06:02:10.153Z,36.63
2018-04-18T06:04:45.325Z,34.90
2018-04-18T06:07:20.117Z,33.17
2018-04-18T06:09:54.732Z,35.43
2018-04-18T06:12:29.752Z,38.17
2018-04-18T06:15:04.184Z,31.63
2018-04-18T06:17:38.741Z,35.60
2018-04-18T06:20:13.132Z,36.87
2018-04-18T06:22:47.681Z,37.20
2018-04-18T06:25:22.068Z,38.27
2018-04-18T06:27:56.521Z,39.90
2018-04-18T06:30:31.871Z,37.60
2018-04-18T06:33:06.240Z,36.27
2018-04-18T06:35:40.813Z,40.23
2018-04-18T06:38:15.247Z,35.37
2018-04-18T06:40:50.555Z,34.60
2018-04-18T06:43:25.101Z,36.37
2018-04-18T06:45:59.467Z,41.37
2018-04-18T06:48:34.036Z,37.47
2018-04-18T06:51:08.342Z,31.57
2018-04-18T06:53:42.764Z,39.13
2018-04-18T06:56:17.218Z,40.63
2018-04-18T06:58:51.517Z,43.00
2018-04-18T07:01:26.049Z,41.80
2018-04-18T07:04:00.703Z,46.43
2018-04-18T07:06:35.125Z,38.13
2018-04-18T07:09:09.720Z,38.97
2018-04-18T07:11:44.340Z,34.63
2018-04-18T07:14:18.864Z,41.77
2018-04-18T07:16:53.192Z,42.67
2018-04-18T07:19:27.608Z,39.60
2018-04-18T07:22:02.117Z,34.03
2018-04-18T07:24:36.548Z,37.73
2018-04-18T07:27:10.814Z,37.80
2018-04-18T07:29:45.276Z,38.20
2018-04-18T07:32:19.596Z,37.00
2018-04-18T07:34:53.968Z,39.17
2018-04-18T07:37:29.041Z,38.93
2018-04-18T07:40:03.573Z,39.00
2018-04-18T07:42:38.036Z,38.87
2018-04-18T07:45:12.520Z,41.20
2018-04-18T07:47:47.539Z,39.37
2018-04-18T07:50:22.274Z,38.17
2018-04-18T07:52:56.720Z,31.50
2018-04-18T07:55:31.217Z,28.87
2018-04-18T07:58:05.663Z,33.43
2018-04-18T08:00:40.903Z,30.63
2018-04-18T08:03:15.212Z,29.13
2018-04-18T08:05:49.632Z,31.67
2018-04-18T08:08:24.252Z,34.73
2018-04-18T08:10:58.578Z,32.87
2018-04-18T08:13:33.124Z,34.97
2018-04-18T08:16:07.621Z,32.80
2018-04-18T08:25:14.036Z,27.17
2018-04-18T08:27:56.538Z,30.30
2018-04-18T08:30:31.032Z,28.33
2018-04-18T08:33:05.290Z,24.77
2018-04-18T08:35:39.808Z,31.00
2018-04-18T08:38:14.333Z,28.70
2018-04-18T08:40:48.944Z,28.47
2018-04-18T08:43:23.475Z,24.30
2018-04-18T08:45:57.900Z,29.37
2018-04-18T08:48:33.145Z,23.87
2018-04-18T08:51:07.561Z,21.03
2018-04-18T08:53:41.948Z,25.33
2018-04-18T08:56:16.691Z,19.40
2018-04-18T08:58:51.085Z,20.13
2018-04-18T09:01:25.493Z,16.87
2018-04-18T09:04:00.072Z,22.87
2018-04-18T09:06:34.509Z,17.60
2018-04-18T09:09:09.037Z,19.27
2018-04-18T09:11:44.849Z,18.83
2018-04-18T09:14:19.264Z,15.87
2018-04-18T09:16:53.664Z,16.50
2018-04-18T09:19:28.238Z,16.03
2018-04-18T09:22:02.625Z,22.40
2018-04-18T09:24:37.016Z,20.77
2018-04-18T09:27:11.498Z,15.87
2018-04-18T09:29:45.918Z,14.70
2018-04-18T09:32:20.336Z,16.60
2018-04-18T09:34:54.760Z,18.10
2018-04-18T09:37:29.971Z,12.43
2018-04-18T09:40:05.151Z,15.97
2018-04-18T09:42:40.345Z,15.47
2018-04-18T09:45:14.816Z,17.50
2018-04-18T09:47:49.060Z,15.17
2018-04-18T09:50:23.308Z,19.67
2018-04-18T09:52:57.765Z,15.50
2018-04-18T09:55:32.281Z,15.80
2018-04-18T09:58:06.696Z,13.17
2018-04-18T10:00:46.855Z,24.37
2018-04-18T10:03:21.149Z,17.17
2018-04-18T10:05:55.500Z,14.43
2018-04-18T10:08:29.828Z,18.17
2018-04-18T10:11:04.116Z,12.87
2018-04-18T10:13:38.429Z,18.17
2018-04-18T10:16:12.855Z,8.07
2018-04-18T10:18:47.920Z,12.60
2018-04-18T10:21:23.744Z,10.10
2018-04-18T10:23:58.313Z,12.30
2018-04-18T10:26:32.684Z,8.50
2018-04-18T10:29:07.120Z,9.37
2018-04-18T10:31:41.536Z,9.33
2018-04-18T10:34:16.056Z,13.90
2018-04-18T10:36:50.432Z,15.27
2018-04-18T10:39:24.872Z,9.73
2018-04-18T10:41:59.400Z,15.87
2018-04-18T10:44:33.864Z,6.73
2018-04-18T10:47:08.176Z,12.13
2018-04-18T10:49:42.588Z,7.97
2018-04-18T10:52:16.858Z,13.43
2018-04-18T10:54:51.205Z,12.10
2018-04-18T10:57:26.231Z,13.33
2018-04-18T11:00:00.661Z,10.83
2018-04-18T11:02:35.304Z,15.33
2018-04-18T11:05:10.649Z,13.10
2018-04-18T11:07:45.020Z,6.47
2018-04-18T11:10:19.376Z,12.73
2018-04-18T11:12:53.757Z,12.43
2018-04-18T11:15:28.415Z,10.50
2018-04-18T11:18:02.848Z,11.60
2018-04-18T11:20:37.241Z,13.27
2018-04-18T11:23:11.700Z,12.00
2018-04-18T11:25:46.224Z,12.27
2018-04-18T11:28:20.592Z,11.70
2018-04-18T11:30:55.042Z,13.30
2018-04-18T11:33:29.388Z,11.27
2018-04-18T11:36:03.746Z,10.90
2018-04-18T11:38:38.207Z,13.13
2018-04-18T11:41:12.544Z,14.93
2018-04-18T11:43:47.077Z,11.33
2018-04-18T11:46:21.796Z,15.70
2018-04-18T11:48:56.160Z,14.93
2018-04-18T11:51:30.831Z,19.93
2018-04-18T11:54:05.140Z,16.07
2018-04-18T11:56:39.476Z,12.90
2018-04-18T11:59:13.892Z,17.00
2018-04-18T12:01:48.229Z,12.43
2018-04-18T12:04:22.667Z,15.00
2018-04-18T12:06:56.990Z,16.07
2018-04-18T12:09:31.464Z,12.23
2018-04-18T12:12:05.899Z,15.80
2018-04-18T12:14:40.416Z,24.70
2018-04-18T12:17:15.444Z,17.13
2018-04-18T12:19:49.893Z,19.90
2018-04-18T12:22:25.831Z,17.97
2018-04-18T12:25:00.224Z,25.37
2018-04-18T12:27:34.540Z,16.80
2018-04-18T12:30:08.897Z,21.97
2018-04-18T12:32:43.289Z,21.50
2018-04-18T12:35:18.648Z,24.67
2018-04-18T12:37:53.064Z,19.43
2018-04-18T12:40:27.440Z,15.70
2018-04-18T12:43:06.564Z,22.20
2018-04-18T12:45:41.063Z,22.93
2018-04-18T12:48:15.468Z,31.67
2018-04-18T12:50:50.104Z,21.73
2018-04-18T12:53:24.509Z,18.90
2018-04-18T12:55:58.931Z,26.27
2018-04-18T12:58:33.556Z,26.00
2018-04-18T13:01:07.861Z,17.70
2018-04-18T13:03:42.400Z,22.93
2018-04-18T13:06:16.836Z,25.53
2018-04-18T13:08:51.465Z,23.97
2018-04-18T13:11:25.881Z,23.47
2018-04-18T13:14:00.984Z,19.97
2018-04-18T13:16:35.329Z,26.13
2018-04-18T13:19:09.737Z,23.00
2018-04-18T13:21:44.165Z,23.70
2018-04-18T13:24:18.801Z,28.47
2018-04-18T13:26:53.303Z,24.70
2018-04-18T13:29:28.454Z,17.90
2018-04-18T13:32:02.868Z,29.00
2018-04-18T13:34:37.269Z,20.67
2018-04-18T13:37:11.809Z,26.60
2018-04-18T13:39:46.105Z,29.53
2018-04-18T13:42:20.506Z,25.30
2018-04-18T13:44:54.944Z,26.23
2018-04-18T13:47:29.271Z,26.73
2018-04-18T13:50:03.561Z,29.23
2018-04-18T13:52:37.924Z,19.63
2018-04-18T13:55:12.393Z,24.67
2018-04-18T13:57:46.745Z,27.33
2018-04-18T14:00:21.101Z,18.00
2018-04-18T14:02:55.488Z,27.43
2018-04-18T14:05:30.028Z,23.17
2018-04-18T14:08:04.285Z,27.27
2018-04-18T14:10:38.972Z,31.90
2018-04-18T14:13:13.241Z,26.80
2018-04-18T14:15:47.712Z,30.10
2018-04-18T14:18:22.836Z,30.30
2018-04-18T14:20:58.064Z,31.03
2018-04-18T14:23:32.480Z,33.60
2018-04-18T14:26:07.837Z,29.93
2018-04-18T14:28:42.257Z,27.33
2018-04-18T14:31:16.624Z,32.60
2018-04-18T14:33:51.016Z,35.57
2018-04-18T14:36:25.332Z,28.53
2018-04-18T14:39:00.063Z,26.07
2018-04-18T14:41:34.484Z,25.93
2018-04-18T14:44:09.704Z,33.00
2018-04-18T14:46:44.180Z,31.97
2018-04-18T14:49:18.651Z,33.93
2018-04-18T14:51:52.984Z,23.47
2018-04-18T14:54:27.813Z,35.53
2018-04-18T14:57:02.242Z,26.73
2018-04-18T14:59:36.796Z,23.77
2018-04-18T15:02:11.292Z,31.13
2018-04-18T15:04:47.232Z,30.57
2018-04-18T15:07:21.548Z,29.97
2018-04-18T15:09:56.016Z,30.57
2018-04-18T15:12:30.685Z,27.83
2018-04-18T15:15:05.208Z,27.70
2018-04-18T15:17:39.513Z,25.57
2018-04-18T15:20:13.836Z,26.03
2018-04-18T15:22:48.195Z,28.57
2018-04-18T15:25:22.703Z,29.37
2018-04-18T15:27:57.164Z,28.77
2018-04-18T15:30:31.529Z,25.47
2018-04-18T15:33:05.873Z,28.00
2018-04-18T15:35:41.691Z,25.33
2018-04-18T15:38:16.129Z,21.60
2018-04-18T15:40:50.560Z,24.63
2018-04-18T15:43:25.277Z,21.77
2018-04-18T15:45:59.500Z,25.33
2018-04-18T15:48:33.817Z,23.97
2018-04-18T15:51:08.453Z,21.20
2018-04-18T15:53:42.856Z,27.07
2018-04-18T15:56:17.291Z,23.33
2018-04-18T15:58:51.839Z,25.03
2018-04-18T16:01:26.223Z,24.43
2018-04-18T16:04:00.656Z,25.07
2018-04-18T16:06:35.081Z,27.37
2018-04-18T16:09:09.482Z,29.90
2018-04-18T16:11:43.900Z,22.23
2018-04-18T16:14:18.323Z,24.67
2018-04-18T16:16:52.660Z,22.97
2018-04-18T16:19:27.043Z,18.80
2018-04-18T16:22:01.504Z,19.37
2018-04-18T16:24:35.904Z,20.70
2018-04-18T16:27:10.309Z,17.50
2018-04-18T16:29:45.400Z,18.57
2018-04-18T16:32:20.716Z,22.10
2018-04-18T16:34:55.856Z,20.97
2018-04-18T16:37:30.236Z,21.23
2018-04-18T16:40:04.849Z,20.80
2018-04-18T16:42:39.216Z,26.77
2018-04-18T16:45:13.624Z,20.67
2018-04-18T16:47:48.884Z,21.07
2018-04-18T16:50:23.508Z,20.93
2018-04-18T16:52:57.965Z,18.83
2018-04-18T16:55:33.292Z,24.17
2018-04-18T16:58:07.805Z,21.70
2018-04-18T17:00:42.157Z,22.67
2018-04-18T17:03:17.424Z,19.43
2018-04-18T17:05:52.684Z,17.60
2018-04-18T17:08:27.831Z,14.20
2018-04-18T17:11:02.131Z,20.90
2018-04-18T17:13:36.683Z,13.20
2018-04-18T17:16:11.223Z,19.67
2018-04-18T17:18:46.216Z,14.93
2018-04-18T17:21:20.610Z,17.00
2018-04-18T17:23:55.168Z,19.87
2018-04-18T17:26:29.794Z,16.87
2018-04-18T17:29:04.148Z,18.50
2018-04-18T17:31:39.448Z,20.03
2018-04-18T17:34:13.940Z,24.90
2018-04-18T17:36:48.277Z,22.10
2018-04-18T17:39:22.588Z,23.50
2018-04-18T17:41:57.184Z,21.40
2018-04-18T17:44:32.992Z,21.73
2018-04-18T17:47:07.350Z,18.30
2018-04-18T17:49:41.640Z,15.07
2018-04-18T17:52:16.267Z,18.83
2018-04-18T17:54:50.688Z,18.10
2018-04-18T17:57:25.205Z,20.50
2018-04-18T17:59:59.580Z,20.33
2018-04-18T18:02:33.966Z,16.70
2018-04-18T18:05:09.089Z,18.67
2018-04-18T18:07:43.415Z,17.40
2018-04-18T18:10:17.749Z,18.87
2018-04-18T18:12:52.033Z,14.83
2018-04-18T18:15:26.552Z,11.43
2018-04-18T18:18:01.007Z,11.73
2018-04-18T18:20:36.236Z,12.57
2018-04-18T18:23:10.592Z,17.30
2018-04-18T18:25:45.672Z,14.47
2018-04-18T18:28:20.004Z,8.50
2018-04-18T18:30:54.520Z,10.97
2018-04-18T18:33:29.008Z,7.93
2018-04-18T18:36:03.440Z,8.73
2018-04-18T18:38:37.902Z,7.00
2018-04-18T18:41:12.421Z,9.33
2018-04-18T18:43:47.625Z,6.53
2018-04-18T18:46:22.052Z,8.17
2018-04-18T18:48:57.494Z,7.00
2018-04-18T18:51:31.748Z,13.20
2018-04-18T18:54:06.030Z,17.37
2018-04-18T18:56:40.587Z,11.70
2018-04-18T18:59:15.020Z,16.37
2018-04-18T19:01:49.672Z,11.63
2018-04-18T19:04:24.845Z,13.07
2018-04-18T19:07:00.106Z,11.87
2018-04-18T19:09:34.508Z,8.53
2018-04-18T19:12:09.037Z,6.30
2018-04-18T19:14:43.447Z,7.43
2018-04-18T19:17:17.785Z,9.57
2018-04-18T19:19:52.065Z,7.60
2018-04-18T19:22:26.516Z,6.00
2018-04-18T19:25:01.024Z,12.43
2018-04-18T19:27:35.320Z,11.13
2018-04-18T19:30:09.629Z,9.33
2018-04-18T19:32:43.992Z,5.30
2018-04-18T19:35:18.321Z,14.07
2018-04-18T19:37:52.596Z,6.53
2018-04-18T19:40:27.056Z,6.73
2018-04-18T19:43:01.375Z,9.17
2018-04-18T19:45:35.682Z,10.17
2018-04-18T19:48:10.049Z,22.07
2018-04-18T19:50:44.344Z,17.80
2018-04-18T19:53:18.644Z,14.03
2018-04-18T19:55:53.668Z,7.60
2018-04-18T19:58:28.025Z,8.40
2018-04-18T20:01:02.463Z,5.83
2018-04-18T20:03:36.734Z,7.27
2018-04-18T20:06:11.887Z,31.80
2018-04-18T20:08:47.011Z,28.90
2018-04-18T20:11:21.461Z,14.70
2018-04-18T20:13:55.814Z,31.87
2018-04-18T20:16:30.205Z,38.10
2018-04-18T20:19:04.717Z,18.10
2018-04-18T20:21:39.077Z,19.80
2018-04-18T20:24:13.392Z,39.40
2018-04-18T20:26:47.750Z,16.73
2018-04-18T20:29:22.116Z,36.90
2018-04-18T20:31:56.629Z,30.93
2018-04-18T20:34:31.139Z,37.70
2018-04-18T20:37:05.446Z,37.17
2018-04-18T20:39:39.779Z,30.07
2018-04-18T20:42:14.220Z,25.37
2018-04-18T20:44:49.418Z,32.47
2018-04-18T20:47:23.837Z,41.40
2018-04-18T20:49:58.281Z,26.73
2018-04-18T20:52:32.766Z,31.90
2018-04-18T20:55:07.226Z,29.57
2018-04-18T20:57:41.590Z,31.03
2018-04-18T21:00:15.927Z,32.47
2018-04-18T21:02:50.443Z,26.60
2018-04-18T21:05:24.917Z,29.10
2018-04-18T21:07:59.240Z,31.57
2018-04-18T21:10:33.618Z,30.23
2018-04-18T21:13:07.969Z,30.03
2018-04-18T21:15:42.449Z,27.97
2018-04-18T21:18:16.842Z,35.53
2018-04-18T21:20:51.103Z,17.80
2018-04-18T21:23:26.177Z,14.07
2018-04-18T21:26:00.618Z,21.30
2018-04-18T21:28:35.033Z,27.37
2018-04-18T21:31:09.351Z,36.67
2018-04-18T21:33:43.959Z,10.47
2018-04-18T21:36:18.289Z,9.13
2018-04-18T21:38:52.550Z,7.40
2018-04-18T21:41:26.832Z,10.63
2018-04-18T21:44:01.284Z,9.27
2018-04-18T21:46:36.529Z,6.67
2018-04-18T21:49:11.138Z,14.20
2018-04-18T21:51:45.604Z,5.87
2018-04-18T21:54:20.227Z,8.30
2018-04-18T21:56:54.761Z,18.97
2018-04-18T21:59:29.045Z,7.27
2018-04-18T22:02:04.192Z,6.27
2018-04-18T22:04:38.734Z,9.07
2018-04-18T22:07:13.271Z,6.53
2018-04-18T22:09:47.620Z,8.03
2018-04-18T22:12:21.932Z,11.00
2018-04-18T22:14:56.222Z,7.07
2018-04-18T22:17:30.517Z,5.77
2018-04-18T22:20:04.947Z,9.43
2018-04-18T22:22:39.268Z,10.33
2018-04-18T22:25:13.808Z,14.47
2018-04-18T22:27:48.222Z,10.20
2018-04-18T22:30:23.441Z,8.00
2018-04-18T22:32:59.416Z,6.40
2018-04-18T22:35:34.018Z,8.07
2018-04-18T22:38:08.281Z,6.83
2018-04-18T22:40:43.451Z,8.20
2018-04-18T22:43:17.837Z,9.40
2018-04-18T22:45:52.236Z,7.80
2018-04-18T22:48:26.526Z,8.33
2018-04-18T22:51:00.968Z,6.57
2018-04-18T22:53:35.253Z,6.97
2018-04-18T22:56:09.580Z,7.03
2018-04-18T22:58:44.009Z,7.87
2018-04-18T23:01:18.273Z,7.33
2018-04-18T23:03:52.682Z,21.73
2018-04-18T23:06:27.096Z,11.37
2018-04-18T23:09:01.506Z,7.63
2018-04-18T23:11:35.964Z,18.20
2018-04-18T23:14:10.457Z,7.83
2018-04-18T23:16:44.922Z,6.43
2018-04-18T23:19:19.385Z,8.17
2018-04-18T23:21:53.637Z,5.50
2018-04-18T23:24:28.762Z,10.00
2018-04-18T23:27:04.801Z,8.70
2018-04-18T23:29:39.348Z,8.00
2018-04-18T23:32:13.829Z,8.33
2018-04-18T23:34:48.105Z,6.70
2018-04-18T23:37:23.162Z,5.73
2018-04-18T23:39:57.867Z,5.57
2018-04-18T23:42:32.433Z,6.10
2018-04-18T23:45:06.926Z,8.10
2018-04-18T23:47:41.369Z,6.40
2018-04-18T23:50:15.781Z,6.70
2018-04-18T23:52:50.112Z,8.10
2018-04-18T23:55:24.592Z,7.47
2018-04-18T23:57:59.055Z,6.03
